createdAt,value
2019-05-03T00:00:19.597Z,71.33
2019-05-03T00:01:21.751Z,71.01
2019-05-03T00:02:22.268Z,71.25
2019-05-03T00:03:22.704Z,71.12
2019-05-03T00:04:23.135Z,71.12
2019-05-03T00:05:23.574Z,71.05
2019-05-03T00:06:24.005Z,70.81
2019-05-03T00:07:24.469Z,70.43
2019-05-03T00:08:24.895Z,70.64
2019-05-03T00:09:26.328Z,70.92
2019-05-03T00:10:26.761Z,70.81
2019-05-03T00:11:27.205Z,70.92
2019-05-03T00:12:27.658Z,70.51
2019-05-03T00:13:28.102Z,70.51
2019-05-03T00:14:28.528Z,70.61
2019-05-03T00:15:28.962Z,70.51
2019-05-03T00:16:29.396Z,71.12
2019-05-03T00:17:52.595Z,71.01
2019-05-03T00:18:53.129Z,70.71
2019-05-03T00:19:53.559Z,70.88
2019-05-03T00:20:53.991Z,71.01
2019-05-03T00:21:54.449Z,71.01
2019-05-03T00:22:54.889Z,71.01
2019-05-03T00:23:55.315Z,71.01
2019-05-03T00:25:05.291Z,71.12
2019-05-03T00:26:02.673Z,71.33
2019-05-03T00:27:03.257Z,70.92
2019-05-03T00:28:03.690Z,70.88
2019-05-03T00:29:04.128Z,71.01
2019-05-03T00:30:04.554Z,71.29
2019-05-03T00:31:05.998Z,71.09
2019-05-03T00:32:06.454Z,71.12
2019-05-03T00:33:06.889Z,71.19
2019-05-03T00:34:07.415Z,71.19
2019-05-03T00:35:08.870Z,71.09
2019-05-03T00:36:09.323Z,71.09
2019-05-03T00:37:09.781Z,70.98
2019-05-03T00:38:12.247Z,70.98
2019-05-03T00:39:21.673Z,70.98
2019-05-03T00:40:22.187Z,70.88
2019-05-03T00:41:29.259Z,70.98
2019-05-03T00:42:31.668Z,70.92
2019-05-03T00:43:54.228Z,70.98
2019-05-03T00:44:54.659Z,70.98
2019-05-03T00:46:02.102Z,70.88
2019-05-03T00:47:02.606Z,70.88
2019-05-03T00:48:04.040Z,70.98
2019-05-03T00:49:04.470Z,70.88
2019-05-03T00:50:05.904Z,70.88
2019-05-03T00:51:06.350Z,71.01
2019-05-03T00:52:06.808Z,70.88
2019-05-03T00:53:07.239Z,70.78
2019-05-03T00:54:08.669Z,70.78
2019-05-03T00:55:16.064Z,70.98
2019-05-03T00:56:15.500Z,70.61
2019-05-03T00:57:20.285Z,70.78
2019-05-03T00:58:22.441Z,70.47
2019-05-03T01:00:41.738Z,70.37
2019-05-03T01:01:48.766Z,70.51
2019-05-03T01:02:49.209Z,70.88
2019-05-03T01:03:49.635Z,70.92
2019-05-03T01:04:51.843Z,70.98
2019-05-03T01:06:22.277Z,70.92
2019-05-03T01:07:22.888Z,70.78
2019-05-03T01:08:25.328Z,70.61
2019-05-03T01:09:25.764Z,71.01
2019-05-03T01:10:26.200Z,71.42
2019-05-03T01:11:26.625Z,71.50
2019-05-03T01:12:27.071Z,71.33
2019-05-03T01:13:27.501Z,71.42
2019-05-03T01:14:28.935Z,71.53
2019-05-03T01:15:29.369Z,71.53
2019-05-03T01:16:37.759Z,71.63
2019-05-03T01:17:38.232Z,71.63
2019-05-03T01:18:38.681Z,71.73
2019-05-03T01:19:39.105Z,71.63
2019-05-03T01:20:42.161Z,71.63
2019-05-03T01:21:43.062Z,71.53
2019-05-03T01:22:43.517Z,71.42
2019-05-03T01:23:43.954Z,71.42
2019-05-03T01:24:45.394Z,71.53
2019-05-03T01:25:45.838Z,71.63
2019-05-03T01:26:46.289Z,71.94
2019-05-03T01:27:46.738Z,71.94
2019-05-03T01:28:47.241Z,71.83
2019-05-03T01:29:47.676Z,71.63
2019-05-03T01:30:48.099Z,71.63
2019-05-03T01:31:48.554Z,71.63
2019-05-03T01:32:49.005Z,71.83
2019-05-03T01:33:51.668Z,71.94
2019-05-03T01:34:52.502Z,71.83
2019-05-03T01:35:52.976Z,72.04
2019-05-03T01:36:53.420Z,71.73
2019-05-03T01:37:53.865Z,71.73
2019-05-03T01:40:12.420Z,71.73
2019-05-03T01:41:21.786Z,71.73
2019-05-03T01:42:22.594Z,71.94
2019-05-03T01:43:23.257Z,71.73
2019-05-03T01:44:23.680Z,72.04
2019-05-03T01:45:24.101Z,72.14
2019-05-03T01:46:24.519Z,72.14
2019-05-03T01:48:42.204Z,71.83
2019-05-03T01:49:43.677Z,71.63
2019-05-03T01:50:44.101Z,71.73
2019-05-03T01:51:52.701Z,71.63
2019-05-03T01:52:53.173Z,71.77
2019-05-03T01:53:54.616Z,72.04
2019-05-03T01:54:55.051Z,72.04
2019-05-03T01:55:57.496Z,71.97
2019-05-03T01:56:59.249Z,72.07
2019-05-03T01:58:01.942Z,72.28
2019-05-03T01:59:02.393Z,72.04
2019-05-03T02:00:19.759Z,72.17
2019-05-03T02:01:21.993Z,71.87
2019-05-03T02:02:23.563Z,71.73
2019-05-03T02:03:24.022Z,71.73
2019-05-03T02:04:32.269Z,71.56
2019-05-03T02:05:32.729Z,71.73
2019-05-03T02:06:33.164Z,71.63
2019-05-03T02:07:33.617Z,71.63
2019-05-03T02:08:34.084Z,71.63
2019-05-03T02:09:34.511Z,71.63
2019-05-03T02:10:43.580Z,71.66
2019-05-03T02:11:44.205Z,71.73
2019-05-03T02:12:45.648Z,71.77
2019-05-03T02:13:46.073Z,71.73
2019-05-03T02:14:53.248Z,71.97
2019-05-03T02:15:53.684Z,71.77
2019-05-03T02:16:55.153Z,71.87
2019-05-03T02:17:55.593Z,71.63
2019-05-03T02:18:59.264Z,71.94
2019-05-03T02:19:59.698Z,71.83
2019-05-03T02:21:01.699Z,71.63
2019-05-03T02:22:02.882Z,72.04
2019-05-03T02:23:12.278Z,71.66
2019-05-03T02:24:12.705Z,71.97
2019-05-03T02:25:14.134Z,72.28
2019-05-03T02:26:14.561Z,72.07
2019-05-03T02:27:37.019Z,72.14
2019-05-03T02:28:37.464Z,72.17
2019-05-03T02:29:37.908Z,72.28
2019-05-03T02:30:38.337Z,71.97
2019-05-03T02:31:38.780Z,72.07
2019-05-03T02:32:39.214Z,72.07
2019-05-03T02:33:43.418Z,72.17
2019-05-03T02:34:44.341Z,71.73
2019-05-03T02:35:44.788Z,71.77
2019-05-03T02:36:45.219Z,71.77
2019-05-03T02:37:45.660Z,71.87
2019-05-03T02:38:46.105Z,71.77
2019-05-03T02:39:54.249Z,71.73
2019-05-03T02:40:54.678Z,71.87
2019-05-03T02:41:59.777Z,71.77
2019-05-03T02:43:01.522Z,71.97
2019-05-03T02:44:06.304Z,72.38
2019-05-03T02:45:06.796Z,72.17
2019-05-03T02:46:08.476Z,72.17
2019-05-03T02:47:08.906Z,71.97
2019-05-03T02:48:16.633Z,72.28
2019-05-03T02:49:17.129Z,71.97
2019-05-03T02:50:19.616Z,72.17
2019-05-03T02:51:20.075Z,72.07
2019-05-03T02:52:28.560Z,72.28
2019-05-03T02:53:29.035Z,72.17
2019-05-03T02:54:29.485Z,72.28
2019-05-03T02:55:29.917Z,72.07
2019-05-03T02:56:30.365Z,71.97
2019-05-03T02:57:30.789Z,72.28
2019-05-03T02:58:31.322Z,72.17
2019-05-03T02:59:31.743Z,72.07
2019-05-03T03:00:36.139Z,72.28
2019-05-03T03:01:36.711Z,72.17
2019-05-03T03:02:45.585Z,72.07
2019-05-03T03:03:46.248Z,72.24
2019-05-03T03:04:47.693Z,72.17
2019-05-03T03:05:48.126Z,72.28
2019-05-03T03:06:49.654Z,72.28
2019-05-03T03:07:50.073Z,72.28
2019-05-03T03:08:50.535Z,72.28
2019-05-03T03:09:50.972Z,72.21
2019-05-03T03:10:51.400Z,72.17
2019-05-03T03:11:51.824Z,72.28
2019-05-03T03:12:55.140Z,72.28
2019-05-03T03:13:55.812Z,72.11
2019-05-03T03:14:56.250Z,72.21
2019-05-03T03:15:56.678Z,72.11
2019-05-03T03:16:59.133Z,72.21
2019-05-03T03:17:59.652Z,72.07
2019-05-03T03:19:01.153Z,72.31
2019-05-03T03:20:01.601Z,72.28
2019-05-03T03:21:02.130Z,72.17
2019-05-03T03:22:05.664Z,72.17
2019-05-03T03:23:07.463Z,72.41
2019-05-03T03:24:08.008Z,72.17
2019-05-03T03:25:09.450Z,72.28
2019-05-03T03:26:09.877Z,72.28
2019-05-03T03:27:11.330Z,72.28
2019-05-03T03:28:11.765Z,72.17
2019-05-03T03:29:16.036Z,72.28
2019-05-03T03:30:17.456Z,72.07
2019-05-03T03:31:37.957Z,72.31
2019-05-03T03:32:39.172Z,72.31
2019-05-03T03:33:58.958Z,72.28
2019-05-03T03:35:03.552Z,72.31
2019-05-03T03:36:31.451Z,72.21
2019-05-03T03:37:15.585Z,72.21
2019-05-03T03:38:16.227Z,72.11
2019-05-03T03:39:21.766Z,72.41
2019-05-03T03:40:22.277Z,72.21
2019-05-03T03:41:24.974Z,72.31
2019-05-03T03:42:26.510Z,72.17
2019-05-03T03:43:26.987Z,71.80
2019-05-03T03:44:27.457Z,72.31
2019-05-03T03:45:27.907Z,72.11
2019-05-03T03:46:36.311Z,72.21
2019-05-03T03:47:36.772Z,72.31
2019-05-03T03:48:38.205Z,72.31
2019-05-03T03:49:38.657Z,72.31
2019-05-03T03:50:39.092Z,72.11
2019-05-03T03:51:39.532Z,72.31
2019-05-03T03:52:39.972Z,72.31
2019-05-03T03:53:40.400Z,72.21
2019-05-03T03:54:40.859Z,72.31
2019-05-03T03:55:41.315Z,72.31
2019-05-03T03:56:59.373Z,72.21
2019-05-03T03:57:55.657Z,72.00
2019-05-03T03:59:05.727Z,72.31
2019-05-03T04:00:06.362Z,72.41
2019-05-03T04:01:07.815Z,71.90
2019-05-03T04:02:08.279Z,72.11
2019-05-03T04:03:09.729Z,72.11
2019-05-03T04:04:10.165Z,72.31
2019-05-03T04:05:16.061Z,72.45
2019-05-03T04:06:16.536Z,72.21
2019-05-03T04:07:16.989Z,72.31
2019-05-03T04:08:17.423Z,72.11
2019-05-03T04:09:18.925Z,72.21
2019-05-03T04:10:19.389Z,72.14
2019-05-03T04:11:20.848Z,72.41
2019-05-03T04:12:21.360Z,72.21
2019-05-03T04:13:21.808Z,71.90
2019-05-03T04:14:22.249Z,71.08
2019-05-03T04:15:26.019Z,71.12
2019-05-03T04:16:26.785Z,70.91
2019-05-03T04:17:27.224Z,71.01
2019-05-03T04:18:27.656Z,70.71
2019-05-03T04:19:30.127Z,71.12
2019-05-03T04:20:30.548Z,71.32
2019-05-03T04:21:39.733Z,71.32
2019-05-03T04:22:40.160Z,70.91
2019-05-03T04:23:42.604Z,70.91
2019-05-03T04:24:45.809Z,70.71
2019-05-03T04:25:56.304Z,70.71
2019-05-03T04:27:13.749Z,70.61
2019-05-03T04:28:05.756Z,70.61
2019-05-03T04:29:07.424Z,70.57
2019-05-03T04:30:07.887Z,70.50
2019-05-03T04:31:08.410Z,70.71
2019-05-03T04:32:08.855Z,70.71
2019-05-03T04:33:16.274Z,70.57
2019-05-03T04:34:16.704Z,70.71
2019-05-03T04:35:17.179Z,70.61
2019-05-03T04:36:17.623Z,70.71
2019-05-03T04:37:18.058Z,70.57
2019-05-03T04:38:18.511Z,70.91
2019-05-03T04:39:20.960Z,70.91
2019-05-03T04:40:21.441Z,70.91
2019-05-03T04:41:26.739Z,70.71
2019-05-03T04:42:27.492Z,70.71
2019-05-03T04:43:29.951Z,70.61
2019-05-03T04:44:30.388Z,70.71
2019-05-03T04:45:30.861Z,70.57
2019-05-03T04:46:31.305Z,70.91
2019-05-03T04:47:31.748Z,70.50
2019-05-03T04:48:32.198Z,69.89
2019-05-03T04:49:32.642Z,69.17
2019-05-03T04:50:36.338Z,69.99
2019-05-03T04:51:37.248Z,69.38
2019-05-03T04:52:37.679Z,69.99
2019-05-03T04:53:38.138Z,69.68
2019-05-03T04:54:38.565Z,70.20
2019-05-03T04:56:00.362Z,68.87
2019-05-03T04:57:00.802Z,69.68
2019-05-03T04:58:08.224Z,68.76
2019-05-03T04:59:08.651Z,69.68
2019-05-03T05:00:16.740Z,68.87
2019-05-03T05:01:17.183Z,69.27
2019-05-03T05:02:17.615Z,68.87
2019-05-03T05:03:18.064Z,69.07
2019-05-03T05:04:18.539Z,68.87
2019-05-03T05:05:19.002Z,68.97
2019-05-03T05:06:19.445Z,69.27
2019-05-03T05:07:19.887Z,68.87
2019-05-03T05:08:20.327Z,69.27
2019-05-03T05:09:20.754Z,69.07
2019-05-03T05:10:21.207Z,69.27
2019-05-03T05:11:21.656Z,69.27
2019-05-03T05:12:22.101Z,68.97
2019-05-03T05:13:24.845Z,69.48
2019-05-03T05:14:26.509Z,69.24
2019-05-03T05:15:26.975Z,68.55
2019-05-03T05:16:27.428Z,68.15
2019-05-03T05:17:27.856Z,67.40
2019-05-03T05:18:28.313Z,66.69
2019-05-03T05:19:28.751Z,67.40
2019-05-03T05:20:29.219Z,67.33
2019-05-03T05:21:29.658Z,66.92
2019-05-03T05:22:30.091Z,67.13
2019-05-03T05:23:30.531Z,67.23
2019-05-03T05:24:30.966Z,67.43
2019-05-03T05:25:31.417Z,67.30
2019-05-03T05:26:31.866Z,67.30
2019-05-03T05:27:34.494Z,67.10
2019-05-03T05:28:35.515Z,66.99
2019-05-03T05:29:36.051Z,67.40
2019-05-03T05:30:36.570Z,67.10
2019-05-03T05:31:36.998Z,67.19
2019-05-03T05:32:37.434Z,67.40
2019-05-03T05:33:37.861Z,67.10
2019-05-03T05:34:38.292Z,67.10
2019-05-03T05:35:38.740Z,67.10
2019-05-03T05:36:39.166Z,67.10
2019-05-03T05:37:39.740Z,67.30
2019-05-03T05:38:40.171Z,66.99
2019-05-03T05:39:40.678Z,67.10
2019-05-03T05:40:41.126Z,67.19
2019-05-03T05:41:41.611Z,67.19
2019-05-03T05:42:42.050Z,66.99
2019-05-03T05:43:44.528Z,66.99
2019-05-03T05:44:45.481Z,67.19
2019-05-03T05:45:46.049Z,67.10
2019-05-03T05:46:46.473Z,66.99
2019-05-03T05:47:47.971Z,66.69
2019-05-03T05:48:48.401Z,66.58
2019-05-03T05:49:55.772Z,66.89
2019-05-03T05:50:56.243Z,66.89
2019-05-03T05:51:58.867Z,66.69
2019-05-03T05:52:59.359Z,66.69
2019-05-03T05:53:59.895Z,66.69
2019-05-03T05:55:00.336Z,66.28
2019-05-03T05:56:15.753Z,66.45
2019-05-03T05:57:16.313Z,66.38
2019-05-03T05:58:17.854Z,66.38
2019-05-03T05:59:18.294Z,66.28
2019-05-03T06:00:18.792Z,66.58
2019-05-03T06:01:19.237Z,66.38
2019-05-03T06:02:19.704Z,66.78
2019-05-03T06:03:20.151Z,66.58
2019-05-03T06:04:20.646Z,66.25
2019-05-03T06:05:21.074Z,66.75
2019-05-03T06:06:24.790Z,66.48
2019-05-03T06:07:25.233Z,66.38
2019-05-03T06:08:25.740Z,66.58
2019-05-03T06:09:26.172Z,66.28
2019-05-03T06:10:26.603Z,66.48
2019-05-03T06:11:29.135Z,66.58
2019-05-03T06:12:29.645Z,66.72
2019-05-03T06:14:54.493Z,66.38
2019-05-03T06:16:00.271Z,66.58
2019-05-03T06:17:00.695Z,66.99
2019-05-03T06:18:08.752Z,66.78
2019-05-03T06:19:09.180Z,66.89
2019-05-03T06:28:15.598Z,65.15
2019-05-03T06:29:17.130Z,65.36
2019-05-03T06:30:17.598Z,65.15
2019-05-03T06:31:27.720Z,65.02
2019-05-03T06:32:28.159Z,64.92
2019-05-03T06:34:52.046Z,64.89
2019-05-03T06:35:52.500Z,64.68
2019-05-03T06:36:52.971Z,64.48
2019-05-03T06:38:00.187Z,64.68
2019-05-03T06:39:00.611Z,64.78
2019-05-03T06:40:22.107Z,64.34
2019-05-03T06:41:22.551Z,64.58
2019-05-03T06:43:08.591Z,64.55
2019-05-03T06:44:06.015Z,63.93
2019-05-03T06:48:27.957Z,63.63
2019-05-03T06:49:34.529Z,64.27
2019-05-03T06:50:36.094Z,63.83
2019-05-03T06:51:40.082Z,63.73
2019-05-03T06:52:44.582Z,63.02
2019-05-03T06:53:47.575Z,62.30
2019-05-03T06:54:50.910Z,61.99
2019-05-03T06:55:51.346Z,62.17
2019-05-03T06:56:52.875Z,61.99
2019-05-03T06:57:54.584Z,61.79
2019-05-03T06:58:57.143Z,60.97
2019-05-03T06:59:57.587Z,60.97
2019-05-03T07:01:14.809Z,60.97
2019-05-03T07:02:15.381Z,61.05
2019-05-03T07:03:17.873Z,61.02
2019-05-03T07:04:18.307Z,60.92
2019-05-03T07:05:20.846Z,60.41
2019-05-03T07:06:33.359Z,60.30
2019-05-03T07:07:35.534Z,59.69
2019-05-03T07:08:35.989Z,60.13
2019-05-03T07:09:37.447Z,59.89
2019-05-03T07:10:37.903Z,59.39
2019-05-03T07:11:39.451Z,59.18
2019-05-03T07:12:39.958Z,59.80
2019-05-03T07:13:41.479Z,59.69
2019-05-03T07:14:41.929Z,60.30
2019-05-03T07:15:45.409Z,59.39
2019-05-03T07:16:46.023Z,60.30
2019-05-03T07:18:03.008Z,60.21
2019-05-03T07:19:04.419Z,60.21
2019-05-03T07:20:05.118Z,60.38
2019-05-03T07:21:05.574Z,59.36
2019-05-03T07:22:06.143Z,59.46
2019-05-03T07:23:06.580Z,58.95
2019-05-03T07:24:09.100Z,59.23
2019-05-03T07:25:09.529Z,57.60
2019-05-03T07:26:11.047Z,57.60
2019-05-03T07:27:11.506Z,57.60
2019-05-03T07:28:12.032Z,57.09
2019-05-03T07:29:12.471Z,55.46
2019-05-03T07:30:19.591Z,55.87
2019-05-03T07:31:20.107Z,57.19
2019-05-03T07:32:20.691Z,56.99
2019-05-03T07:33:21.121Z,56.68
2019-05-03T07:34:24.612Z,58.03
2019-05-03T07:35:25.311Z,58.23
2019-05-03T07:36:28.362Z,58.01
2019-05-03T07:37:28.934Z,57.73
2019-05-03T07:38:31.433Z,57.50
2019-05-03T07:39:31.870Z,57.50
2019-05-03T07:40:38.997Z,58.21
2019-05-03T07:41:39.443Z,58.31
2019-05-03T07:42:47.558Z,58.21
2019-05-03T07:43:47.989Z,57.78
2019-05-03T07:44:55.982Z,57.47
2019-05-03T07:45:56.488Z,57.65
2019-05-03T07:46:57.005Z,57.98
2019-05-03T07:47:57.434Z,57.85
2019-05-03T07:49:05.136Z,57.57
2019-05-03T07:50:05.678Z,58.31
2019-05-03T07:51:06.108Z,58.28
2019-05-03T07:52:06.657Z,58.49
2019-05-03T07:53:07.099Z,58.08
2019-05-03T07:54:07.532Z,58.28
2019-05-03T07:55:24.995Z,57.98
2019-05-03T07:56:25.594Z,58.51
2019-05-03T07:57:28.123Z,58.51
2019-05-03T07:58:28.576Z,59.30
2019-05-03T07:59:50.011Z,58.18
2019-05-03T08:01:03.541Z,57.24
2019-05-03T08:02:05.560Z,57.24
2019-05-03T08:03:06.285Z,56.83
2019-05-03T08:04:35.901Z,56.93
2019-05-03T08:05:36.515Z,56.81
2019-05-03T08:06:54.906Z,56.77
2019-05-03T08:07:55.514Z,56.98
2019-05-03T08:08:57.982Z,57.18
2019-05-03T08:09:58.425Z,56.50
2019-05-03T08:11:00.864Z,56.77
2019-05-03T08:12:01.495Z,57.21
2019-05-03T08:13:06.030Z,57.21
2019-05-03T08:14:06.457Z,57.31
2019-05-03T08:15:21.480Z,56.81
2019-05-03T08:16:21.900Z,56.70
2019-05-03T08:21:10.362Z,57.17
2019-05-03T08:22:10.797Z,57.37
2019-05-03T08:23:30.026Z,57.60
2019-05-03T08:24:30.852Z,57.70
2019-05-03T08:25:38.105Z,57.70
2019-05-03T08:26:38.538Z,58.41
2019-05-03T08:27:44.704Z,58.34
2019-05-03T08:28:45.159Z,58.23
2019-05-03T08:29:52.576Z,58.34
2019-05-03T08:30:54.320Z,58.34
2019-05-03T08:31:55.977Z,58.64
2019-05-03T08:32:56.457Z,58.64
2019-05-03T08:34:04.845Z,58.85
2019-05-03T08:35:05.441Z,58.03
2019-05-03T08:36:07.049Z,58.23
2019-05-03T08:37:07.479Z,58.44
2019-05-03T08:38:09.061Z,58.03
2019-05-03T08:39:09.515Z,58.03
2019-05-03T08:40:11.080Z,58.14
2019-05-03T08:41:11.507Z,58.03
2019-05-03T08:42:11.951Z,57.83
2019-05-03T08:43:12.570Z,58.23
2019-05-03T08:44:14.521Z,58.54
2019-05-03T08:45:15.088Z,57.70
2019-05-03T08:46:15.509Z,57.80
2019-05-03T08:47:16.141Z,57.78
2019-05-03T08:48:16.586Z,57.67
2019-05-03T08:49:17.180Z,57.95
2019-05-03T08:50:21.456Z,57.34
2019-05-03T08:51:24.986Z,57.34
2019-05-03T08:52:25.619Z,57.11
2019-05-03T08:53:26.336Z,57.11
2019-05-03T08:54:26.762Z,56.70
2019-05-03T08:55:31.102Z,56.70
2019-05-03T08:56:31.778Z,55.76
2019-05-03T08:57:32.308Z,55.12
2019-05-03T08:58:34.650Z,55.00
2019-05-03T08:59:36.320Z,54.59
2019-05-03T09:00:36.752Z,53.27
2019-05-03T09:01:39.415Z,52.73
2019-05-03T09:02:39.982Z,53.24
2019-05-03T09:03:45.742Z,53.06
2019-05-03T09:04:46.469Z,53.47
2019-05-03T09:05:47.033Z,54.08
2019-05-03T09:06:47.517Z,52.96
2019-05-03T09:09:04.701Z,53.09
2019-05-03T09:10:05.541Z,53.19
2019-05-03T09:11:06.031Z,54.21
2019-05-03T09:12:06.461Z,53.90
2019-05-03T09:13:07.983Z,53.19
2019-05-03T09:14:08.421Z,52.96
2019-05-03T09:15:17.494Z,52.23
2019-05-03T09:16:18.107Z,52.63
2019-05-03T09:17:18.625Z,52.79
2019-05-03T09:18:19.094Z,51.77
2019-05-03T09:19:20.592Z,52.28
2019-05-03T09:20:21.064Z,53.02
2019-05-03T09:21:22.546Z,52.51
2019-05-03T09:22:22.981Z,52.53
2019-05-03T09:23:27.013Z,53.24
2019-05-03T09:24:27.486Z,53.04
2019-05-03T09:25:28.139Z,52.66
2019-05-03T09:26:29.575Z,52.45
2019-05-03T09:27:30.309Z,52.58
2019-05-03T09:28:30.957Z,52.86
2019-05-03T09:29:48.001Z,52.56
2019-05-03T09:30:48.426Z,52.86
2019-05-03T09:31:49.950Z,52.35
2019-05-03T09:32:50.374Z,53.17
2019-05-03T09:33:51.952Z,53.17
2019-05-03T09:34:52.391Z,53.47
2019-05-03T09:35:54.913Z,53.06
2019-05-03T09:36:55.519Z,52.78
2019-05-03T09:37:56.040Z,52.89
2019-05-03T09:38:56.495Z,53.09
2019-05-03T09:39:56.971Z,53.50
2019-05-03T09:40:57.399Z,52.98
2019-05-03T09:41:57.913Z,53.39
2019-05-03T09:42:58.352Z,52.91
2019-05-03T09:43:59.112Z,52.78
2019-05-03T09:44:59.563Z,53.19
2019-05-03T09:46:02.216Z,53.59
2019-05-03T09:47:02.648Z,53.29
2019-05-03T09:48:05.447Z,53.37
2019-05-03T09:49:13.683Z,53.57
2019-05-03T09:50:15.665Z,53.57
2019-05-03T09:51:16.274Z,53.37
2019-05-03T09:52:16.714Z,52.66
2019-05-03T09:53:17.313Z,52.45
2019-05-03T09:54:17.755Z,52.56
2019-05-03T09:55:18.550Z,51.95
2019-05-03T09:56:18.997Z,52.66
2019-05-03T09:57:21.576Z,52.53
2019-05-03T09:58:22.011Z,52.51
2019-05-03T09:59:31.519Z,52.10
2019-05-03T10:00:31.957Z,51.26
2019-05-03T10:01:34.644Z,51.34
2019-05-03T10:02:35.356Z,50.93
2019-05-03T10:03:39.057Z,50.73
2019-05-03T10:04:39.499Z,50.84
2019-05-03T10:05:39.996Z,51.06
2019-05-03T10:06:40.542Z,51.37
2019-05-03T10:07:40.981Z,50.76
2019-05-03T10:08:41.698Z,51.79
2019-05-03T10:09:42.139Z,51.79
2019-05-03T10:10:42.617Z,51.49
2019-05-03T10:11:45.547Z,50.88
2019-05-03T10:12:46.522Z,51.09
2019-05-03T10:13:48.586Z,51.06
2019-05-03T10:14:49.442Z,51.18
2019-05-03T10:15:49.910Z,50.68
2019-05-03T10:17:05.467Z,49.97
2019-05-03T10:18:10.772Z,50.68
2019-05-03T10:19:14.380Z,50.78
2019-05-03T10:20:16.625Z,50.98
2019-05-03T10:21:17.070Z,50.27
2019-05-03T10:22:17.511Z,51.21
2019-05-03T10:23:17.945Z,50.88
2019-05-03T10:24:18.411Z,51.18
2019-05-03T10:25:18.835Z,50.88
2019-05-03T10:26:19.270Z,51.42
2019-05-03T10:27:19.700Z,51.18
2019-05-03T10:28:26.994Z,50.20
2019-05-03T10:29:27.480Z,51.18
2019-05-03T10:30:37.042Z,50.35
2019-05-03T10:31:37.475Z,50.53
2019-05-03T10:32:39.027Z,50.53
2019-05-03T10:33:39.477Z,50.31
2019-05-03T10:34:45.526Z,50.31
2019-05-03T10:35:45.991Z,50.33
2019-05-03T10:36:47.561Z,50.23
2019-05-03T10:37:48.081Z,50.73
2019-05-03T10:39:05.568Z,50.53
2019-05-03T10:40:08.141Z,50.25
2019-05-03T10:41:08.960Z,50.35
2019-05-03T10:42:09.397Z,49.95
2019-05-03T10:43:16.446Z,50.15
2019-05-03T10:44:16.917Z,50.25
2019-05-03T10:45:18.515Z,50.58
2019-05-03T10:46:18.959Z,50.48
2019-05-03T10:47:21.494Z,51.62
2019-05-03T10:48:21.918Z,50.81
2019-05-03T10:49:24.673Z,50.90
2019-05-03T10:50:25.388Z,51.21
2019-05-03T10:51:26.041Z,51.82
2019-05-03T10:52:26.477Z,51.51
2019-05-03T10:53:28.095Z,51.75
2019-05-03T10:54:28.555Z,51.42
2019-05-03T10:55:28.983Z,51.39
2019-05-03T10:56:29.413Z,50.96
2019-05-03T10:57:29.961Z,51.06
2019-05-03T10:58:30.406Z,51.16
2019-05-03T10:59:31.094Z,50.23
2019-05-03T11:00:45.000Z,50.00
2019-05-03T11:01:38.235Z,49.06
2019-05-03T11:02:38.669Z,48.96
2019-05-03T11:03:39.157Z,48.46
2019-05-03T11:04:39.671Z,48.46
2019-05-03T11:05:40.105Z,48.15
2019-05-03T11:06:40.632Z,48.15
2019-05-03T11:07:41.051Z,48.15
2019-05-03T11:08:41.478Z,48.83
2019-05-03T11:09:49.763Z,48.74
2019-05-03T11:10:49.572Z,49.04
2019-05-03T11:11:56.939Z,48.43
2019-05-03T11:12:57.366Z,49.02
2019-05-03T11:13:57.873Z,48.82
2019-05-03T11:14:58.328Z,47.92
2019-05-03T11:15:58.802Z,47.82
2019-05-03T11:17:00.597Z,47.31
2019-05-03T11:18:01.258Z,46.41
2019-05-03T11:19:01.707Z,46.30
2019-05-03T11:20:02.222Z,46.20
2019-05-03T11:21:02.652Z,47.02
2019-05-03T11:22:05.251Z,47.52
2019-05-03T11:23:06.172Z,47.52
2019-05-03T11:24:06.663Z,48.03
2019-05-03T11:25:07.180Z,47.50
2019-05-03T11:26:07.639Z,47.27
2019-05-03T11:27:08.239Z,47.15
2019-05-03T11:28:08.696Z,47.45
2019-05-03T11:29:09.124Z,45.63
2019-05-03T11:30:09.937Z,46.04
2019-05-03T11:31:10.408Z,46.14
2019-05-03T11:32:11.764Z,46.12
2019-05-03T11:33:12.346Z,46.04
2019-05-03T11:34:15.101Z,46.54
2019-05-03T11:35:15.675Z,46.16
2019-05-03T11:36:16.128Z,46.99
2019-05-03T11:37:16.620Z,48.13
2019-05-03T11:38:18.273Z,47.44
2019-05-03T11:39:18.847Z,47.36
2019-05-03T11:40:20.381Z,47.77
2019-05-03T11:41:30.283Z,48.38
2019-05-03T11:42:27.225Z,48.99
2019-05-03T11:43:27.728Z,48.80
2019-05-03T11:44:28.159Z,48.58
2019-05-03T11:45:28.624Z,48.27
2019-05-03T11:46:29.059Z,48.80
2019-05-03T11:47:29.750Z,48.68
2019-05-03T11:48:30.187Z,48.78
2019-05-03T11:49:30.672Z,48.88
2019-05-03T11:50:31.133Z,48.66
2019-05-03T11:51:32.665Z,48.25
2019-05-03T11:52:35.348Z,48.96
2019-05-03T11:53:36.099Z,46.22
2019-05-03T11:54:36.530Z,46.43
2019-05-03T11:55:37.880Z,46.95
2019-05-03T11:56:38.332Z,47.87
2019-05-03T11:57:38.895Z,47.56
2019-05-03T11:58:39.320Z,47.59
2019-05-03T11:59:39.821Z,47.06
2019-05-03T12:00:40.265Z,48.38
2019-05-03T12:01:40.754Z,48.07
2019-05-03T12:02:41.242Z,48.76
2019-05-03T12:03:48.467Z,48.23
2019-05-03T12:04:48.890Z,47.92
2019-05-03T12:05:49.419Z,48.11
2019-05-03T12:06:49.857Z,47.60
2019-05-03T12:07:50.314Z,47.86
2019-05-03T12:08:51.876Z,47.15
2019-05-03T12:09:54.577Z,47.13
2019-05-03T12:11:01.059Z,47.53
2019-05-03T12:12:04.775Z,45.89
2019-05-03T12:13:05.397Z,44.96
2019-05-03T12:14:06.905Z,44.64
2019-05-03T12:15:10.982Z,44.42
2019-05-03T12:16:20.593Z,44.37
2019-05-03T12:17:25.825Z,44.23
2019-05-03T12:18:25.114Z,43.68
2019-05-03T12:19:31.187Z,42.94
2019-05-03T12:20:33.067Z,42.10
2019-05-03T12:21:39.184Z,41.97
2019-05-03T12:22:40.687Z,41.97
2019-05-03T12:23:42.314Z,41.67
2019-05-03T12:24:45.770Z,41.27
2019-05-03T12:25:47.375Z,41.09
2019-05-03T12:26:48.225Z,40.37
2019-05-03T12:27:50.763Z,41.09
2019-05-03T12:28:51.251Z,40.11
2019-05-03T12:29:52.704Z,40.42
2019-05-03T12:30:53.138Z,40.00
2019-05-03T12:31:54.806Z,40.11
2019-05-03T12:32:55.546Z,40.50
2019-05-03T12:33:56.655Z,39.72
2019-05-03T12:34:57.261Z,40.04
2019-05-03T12:35:59.029Z,40.56
2019-05-03T12:36:59.475Z,40.97
2019-05-03T12:37:59.931Z,40.36
2019-05-03T12:39:00.465Z,40.95
2019-05-03T12:40:00.923Z,40.56
2019-05-03T12:41:02.467Z,41.49
2019-05-03T12:42:02.918Z,41.11
2019-05-03T12:43:05.787Z,41.42
2019-05-03T12:44:06.559Z,41.93
2019-05-03T12:45:15.278Z,42.03
2019-05-03T12:46:16.844Z,42.15
2019-05-03T12:47:17.441Z,41.77
2019-05-03T12:48:17.944Z,42.40
2019-05-03T12:49:18.368Z,42.19
2019-05-03T12:50:18.804Z,43.43
2019-05-03T12:51:25.177Z,43.14
2019-05-03T12:52:26.948Z,43.75
2019-05-03T12:53:27.855Z,43.32
2019-05-03T12:54:30.375Z,43.43
2019-05-03T12:55:30.817Z,43.12
2019-05-03T12:56:32.942Z,43.51
2019-05-03T12:57:35.989Z,42.78
2019-05-03T12:58:45.548Z,42.86
2019-05-03T12:59:46.212Z,42.05
2019-05-03T13:00:48.571Z,43.06
2019-05-03T13:01:49.172Z,42.96
2019-05-03T13:02:50.706Z,43.26
2019-05-03T13:03:51.129Z,42.13
2019-05-03T13:04:52.129Z,42.44
2019-05-03T13:05:52.627Z,42.35
2019-05-03T13:06:54.933Z,42.03
2019-05-03T13:07:55.476Z,42.30
2019-05-03T13:08:55.903Z,41.95
2019-05-03T13:09:56.364Z,40.24
2019-05-03T13:10:56.913Z,40.16
2019-05-03T13:11:59.080Z,40.26
2019-05-03T13:12:59.767Z,41.09
2019-05-03T13:14:07.968Z,41.20
2019-05-03T13:15:08.387Z,41.41
2019-05-03T13:16:09.105Z,41.02
2019-05-03T13:17:11.388Z,42.05
2019-05-03T13:18:11.930Z,41.55
2019-05-03T13:19:12.370Z,41.75
2019-05-03T13:20:12.929Z,41.95
2019-05-03T13:21:13.452Z,42.05
2019-05-03T13:22:13.946Z,41.42
2019-05-03T13:23:14.463Z,41.83
2019-05-03T13:24:22.762Z,42.03
2019-05-03T13:25:21.373Z,42.13
2019-05-03T13:26:21.904Z,41.75
2019-05-03T13:27:22.344Z,41.65
2019-05-03T13:28:22.797Z,42.18
2019-05-03T13:29:25.464Z,41.56
2019-05-03T13:30:26.096Z,41.97
2019-05-03T13:31:26.580Z,41.89
2019-05-03T13:32:27.022Z,42.40
2019-05-03T13:33:27.547Z,42.32
2019-05-03T13:34:27.982Z,43.55
2019-05-03T13:35:28.474Z,42.94
2019-05-03T13:36:28.922Z,43.57
2019-05-03T13:37:29.418Z,43.46
2019-05-03T13:38:29.837Z,43.37
2019-05-03T13:39:30.357Z,43.29
2019-05-03T13:40:30.818Z,43.59
2019-05-03T13:41:32.374Z,43.79
2019-05-03T13:42:34.879Z,44.09
2019-05-03T13:43:35.540Z,44.29